Información del aeropuerto LEVC

Información de pista
Pista 04 Longitud 5394 ft Anchura 148 ft
Elevación 205 ft Umbral 0 ft Rumbo 38
Pista 22 Longitud 5394 ft Anchura 148 ft
Elevación 188 ft Umbral 0 ft Rumbo 218
Pista 12 Longitud 8858 ft Anchura 148 ft
Elevación 225 ft Umbral 0 ft Rumbo 116
Pista 30 Longitud 8858 ft Anchura 148 ft
Elevación 172 ft Umbral 0 ft Rumbo 296
Frecuencias del aeropuerto
Tipo APP Nombre APP Frecuencia 120.1 MHZ
Tipo ATIS Nombre ATIS Frecuencia 121.075 MHZ
Tipo GND Nombre GND Frecuencia 121.7 MHZ
Tipo TWR Nombre TWR Frecuencia 118.55 MHZ
Radioayudas del aeropuerto
Tipo NDB Nombre Valencia Frecuencia 400 KHZ
Tipo NDB Nombre Valencia Frecuencia 340 KHZ
Tipo NDB Nombre Sagunto Frecuencia 356 KHZ
Tipo VOR-DME Nombre Valencia Frecuencia 116100 KHZ
Información meteorológica del aeropuerto y NOTAM
ADDS - METARS form results

(1451 UTC 16 January 2021)
Data provider http://aviationweather.gov/metar/data/
 
METAR text: LEVC 161430Z 24003KT 170V290 CAVOK 17/M00 Q1025 NOSIG
Conditions at: LEVC (VALENCIA (CIV/MI, ES) observed 1430 UTC 16 January 2021
Temperature: 17.0°C (63°F)
Dewpoint: 0.0°C (32°F) [RH = 32%]
Pressure (altimeter): 30.27 inches Hg (1025.0 mb)
Winds: from the WSW (240 degrees) at 3 MPH (3 knots; 1.5 m/s)
Visibility: 6 or more miles (10+ km)
Ceiling: ceiling and visibility are OK
Clouds: unknown
Weather: no significant weather observed at this time

METAR text: LEVC 161400Z 24004KT 160V280 CAVOK 17/M03 Q1025 NOSIG
Conditions at: LEVC (VALENCIA (CIV/MI, ES) observed 1400 UTC 16 January 2021
Temperature: 17.0°C (63°F)
Dewpoint: -3.0°C (27°F) [RH = 25%]
Pressure (altimeter): 30.27 inches Hg (1025.0 mb)
Winds: from the WSW (240 degrees) at 5 MPH (4 knots; 2.1 m/s)
Visibility: 6 or more miles (10+ km)
Ceiling: ceiling and visibility are OK
Clouds: unknown
Weather: no significant weather observed at this time

Forecast for: LEVC (VALENCIA (CIV/MI, ES)
Text: TAF LEVC 161100Z 1612/1712 27005KT CAVOK TX15/1613Z TN05/1706Z
Forecast period: 1200 UTC 16 January 2021 to 1200 UTC 17 January 2021
Forecast type: FROM: standard forecast or significant change
Winds: from the W (270 degrees) at 6 MPH (5 knots; 2.6 m/s)
Visibility: 6 or more miles (10+ km)
Ceiling: unknown
Clouds: missing
Weather: no significant weather forecast for this period
Text: TEMPO 1612/1618 21005KT
Forecast period: 1200 to 1800 UTC 16 January 2021
Forecast type: TEMPORARY: The following changes expected for less than half the time period
Winds: from the SSW (210 degrees) at 6 MPH (5 knots; 2.6 m/s)
Visibility: missing
Ceiling: unknown
Clouds: missing
Weather: no significant weather forecast for this period